sensor_id;sensor_type;location;lat;lon;timestamp;temperature;humidity
53208;DHT22;39093;52.788;6.940;2022-09-16T00:00:32;12.00;99.90
53208;DHT22;39093;52.788;6.940;2022-09-16T00:02:59;12.00;99.90
53208;DHT22;39093;52.788;6.940;2022-09-16T00:05:26;12.00;99.90
53208;DHT22;39093;52.788;6.940;2022-09-16T00:07:53;11.90;99.90
53208;DHT22;39093;52.788;6.940;2022-09-16T00:10:21;11.90;99.90
53208;DHT22;39093;52.788;6.940;2022-09-16T00:12:48;11.90;99.90
53208;DHT22;39093;52.788;6.940;2022-09-16T00:15:16;11.90;99.90
53208;DHT22;39093;52.788;6.940;2022-09-16T00:17:43;11.90;99.90
53208;DHT22;39093;52.788;6.940;2022-09-16T00:20:11;11.90;99.90
53208;DHT22;39093;52.788;6.940;2022-09-16T00:22:38;11.90;99.90
53208;DHT22;39093;52.788;6.940;2022-09-16T00:25:05;11.90;99.90
53208;DHT22;39093;52.788;6.940;2022-09-16T00:27:32;11.90;99.90
53208;DHT22;39093;52.788;6.940;2022-09-16T00:29:59;11.90;99.90
53208;DHT22;39093;52.788;6.940;2022-09-16T00:32:26;11.90;99.90
53208;DHT22;39093;52.788;6.940;2022-09-16T00:34:53;11.90;99.90
53208;DHT22;39093;52.788;6.940;2022-09-16T00:37:20;12.00;99.90
53208;DHT22;39093;52.788;6.940;2022-09-16T00:39:50;12.00;99.90
53208;DHT22;39093;52.788;6.940;2022-09-16T00:42:17;12.10;99.90
53208;DHT22;39093;52.788;6.940;2022-09-16T00:47:34;12.00;99.90
53208;DHT22;39093;52.788;6.940;2022-09-16T00:50:33;12.00;99.90
53208;DHT22;39093;52.788;6.940;2022-09-16T00:53:06;12.10;99.90
53208;DHT22;39093;52.788;6.940;2022-09-16T00:55:36;12.10;99.90
53208;DHT22;39093;52.788;6.940;2022-09-16T00:58:11;12.20;99.90
53208;DHT22;39093;52.788;6.940;2022-09-16T01:00:40;12.10;99.90
53208;DHT22;39093;52.788;6.940;2022-09-16T01:03:07;12.10;99.90
53208;DHT22;39093;52.788;6.940;2022-09-16T01:05:35;12.10;99.90
53208;DHT22;39093;52.788;6.940;2022-09-16T01:08:03;12.10;99.90
53208;DHT22;39093;52.788;6.940;2022-09-16T01:10:30;12.00;99.90
53208;DHT22;39093;52.788;6.940;2022-09-16T01:13:03;12.10;99.90
53208;DHT22;39093;52.788;6.940;2022-09-16T01:15:50;12.10;99.90
53208;DHT22;39093;52.788;6.940;2022-09-16T01:23:40;12.10;99.90
53208;DHT22;39093;52.788;6.940;2022-09-16T01:34:31;12.10;99.90
53208;DHT22;39093;52.788;6.940;2022-09-16T01:40:06;12.10;99.90
53208;DHT22;39093;52.788;6.940;2022-09-16T01:45:36;12.00;99.90
53208;DHT22;39093;52.788;6.940;2022-09-16T01:48:12;11.90;99.90
53208;DHT22;39093;52.788;6.940;2022-09-16T01:51:07;11.90;99.90
53208;DHT22;39093;52.788;6.940;2022-09-16T01:53:43;11.90;99.90
53208;DHT22;39093;52.788;6.940;2022-09-16T01:56:36;11.90;99.90
53208;DHT22;39093;52.788;6.940;2022-09-16T01:59:09;11.90;99.90
53208;DHT22;39093;52.788;6.940;2022-09-16T02:02:02;11.90;99.90
53208;DHT22;39093;52.788;6.940;2022-09-16T02:04:36;11.90;99.90
53208;DHT22;39093;52.788;6.940;2022-09-16T02:07:09;11.90;99.90
53208;DHT22;39093;52.788;6.940;2022-09-16T02:09:41;11.90;99.90
53208;DHT22;39093;52.788;6.940;2022-09-16T02:12:13;11.90;99.90
53208;DHT22;39093;52.788;6.940;2022-09-16T02:14:42;11.90;99.90
53208;DHT22;39093;52.788;6.940;2022-09-16T02:17:17;11.90;99.90
53208;DHT22;39093;52.788;6.940;2022-09-16T02:19:49;11.90;99.90
53208;DHT22;39093;52.788;6.940;2022-09-16T02:22:26;11.90;99.90
53208;DHT22;39093;52.788;6.940;2022-09-16T02:24:54;12.00;99.90
53208;DHT22;39093;52.788;6.940;2022-09-16T02:27:22;11.90;99.90
53208;DHT22;39093;52.788;6.940;2022-09-16T02:29:55;11.90;99.90
53208;DHT22;39093;52.788;6.940;2022-09-16T02:32:25;11.90;99.90
53208;DHT22;39093;52.788;6.940;2022-09-16T02:34:54;11.80;99.90
53208;DHT22;39093;52.788;6.940;2022-09-16T02:37:44;11.80;99.90
53208;DHT22;39093;52.788;6.940;2022-09-16T02:40:21;11.80;99.90
53208;DHT22;39093;52.788;6.940;2022-09-16T02:42:50;11.80;99.90
53208;DHT22;39093;52.788;6.940;2022-09-16T02:45:20;11.80;99.90
53208;DHT22;39093;52.788;6.940;2022-09-16T02:50:51;11.70;99.90
53208;DHT22;39093;52.788;6.940;2022-09-16T02:53:50;11.70;99.90
53208;DHT22;39093;52.788;6.940;2022-09-16T02:56:31;11.70;99.90
53208;DHT22;39093;52.788;6.940;2022-09-16T02:59:00;11.70;99.90
53208;DHT22;39093;52.788;6.940;2022-09-16T03:01:29;11.70;99.90
53208;DHT22;39093;52.788;6.940;2022-09-16T03:03:57;11.70;99.90
53208;DHT22;39093;52.788;6.940;2022-09-16T03:06:26;11.60;99.90
53208;DHT22;39093;52.788;6.940;2022-09-16T03:08:58;11.60;99.90
53208;DHT22;39093;52.788;6.940;2022-09-16T03:17:53;11.60;99.90
53208;DHT22;39093;52.788;6.940;2022-09-16T03:26:10;11.70;99.90
53208;DHT22;39093;52.788;6.940;2022-09-16T03:28:46;11.70;99.90
53208;DHT22;39093;52.788;6.940;2022-09-16T03:31:30;11.70;99.90
53208;DHT22;39093;52.788;6.940;2022-09-16T03:34:49;11.70;99.90
53208;DHT22;39093;52.788;6.940;2022-09-16T03:37:02;11.70;99.90
53208;DHT22;39093;52.788;6.940;2022-09-16T03:39:31;11.80;99.90
53208;DHT22;39093;52.788;6.940;2022-09-16T03:42:03;11.80;99.90
53208;DHT22;39093;52.788;6.940;2022-09-16T03:44:33;11.70;99.90
53208;DHT22;39093;52.788;6.940;2022-09-16T03:47:01;11.80;99.90
53208;DHT22;39093;52.788;6.940;2022-09-16T03:49:28;11.70;99.90
53208;DHT22;39093;52.788;6.940;2022-09-16T03:51:56;11.60;99.90
53208;DHT22;39093;52.788;6.940;2022-09-16T03:54:24;11.90;99.90
53208;DHT22;39093;52.788;6.940;2022-09-16T03:56:50;11.60;99.90
53208;DHT22;39093;52.788;6.940;2022-09-16T03:59:18;11.70;99.90
53208;DHT22;39093;52.788;6.940;2022-09-16T04:01:44;11.60;99.90
53208;DHT22;39093;52.788;6.940;2022-09-16T04:04:12;11.60;99.90
53208;DHT22;39093;52.788;6.940;2022-09-16T04:06:39;11.60;99.90
53208;DHT22;39093;52.788;6.940;2022-09-16T04:09:06;11.60;99.90
53208;DHT22;39093;52.788;6.940;2022-09-16T04:11:34;11.50;99.90
53208;DHT22;39093;52.788;6.940;2022-09-16T04:14:01;11.50;99.90
53208;DHT22;39093;52.788;6.940;2022-09-16T04:16:29;11.50;99.90
53208;DHT22;39093;52.788;6.940;2022-09-16T04:18:56;11.40;99.90
53208;DHT22;39093;52.788;6.940;2022-09-16T04:21:24;11.50;99.90
53208;DHT22;39093;52.788;6.940;2022-09-16T04:23:51;11.40;99.90
53208;DHT22;39093;52.788;6.940;2022-09-16T04:26:20;11.40;99.90
53208;DHT22;39093;52.788;6.940;2022-09-16T04:28:47;11.30;99.90
53208;DHT22;39093;52.788;6.940;2022-09-16T04:31:14;11.30;99.90
53208;DHT22;39093;52.788;6.940;2022-09-16T04:33:42;11.20;99.90
53208;DHT22;39093;52.788;6.940;2022-09-16T04:36:11;11.30;99.90
53208;DHT22;39093;52.788;6.940;2022-09-16T04:38:40;11.20;99.90
53208;DHT22;39093;52.788;6.940;2022-09-16T04:41:10;11.30;99.90
53208;DHT22;39093;52.788;6.940;2022-09-16T04:43:38;11.20;99.90
53208;DHT22;39093;52.788;6.940;2022-09-16T04:46:05;11.20;99.90
53208;DHT22;39093;52.788;6.940;2022-09-16T04:48:33;11.10;99.90
53208;DHT22;39093;52.788;6.940;2022-09-16T04:51:10;11.10;99.90
53208;DHT22;39093;52.788;6.940;2022-09-16T04:53:39;11.10;99.90
53208;DHT22;39093;52.788;6.940;2022-09-16T04:56:09;11.10;99.90
53208;DHT22;39093;52.788;6.940;2022-09-16T04:58:42;11.10;99.90
53208;DHT22;39093;52.788;6.940;2022-09-16T05:01:12;11.10;99.90
53208;DHT22;39093;52.788;6.940;2022-09-16T05:03:40;11.10;99.90
53208;DHT22;39093;52.788;6.940;2022-09-16T05:06:12;11.00;99.90
53208;DHT22;39093;52.788;6.940;2022-09-16T05:08:46;11.10;99.90
53208;DHT22;39093;52.788;6.940;2022-09-16T05:11:19;11.10;99.90
53208;DHT22;39093;52.788;6.940;2022-09-16T05:13:46;11.10;99.90
53208;DHT22;39093;52.788;6.940;2022-09-16T05:16:15;11.20;99.90
53208;DHT22;39093;52.788;6.940;2022-09-16T05:18:44;11.10;99.90
53208;DHT22;39093;52.788;6.940;2022-09-16T05:21:15;11.10;99.90
53208;DHT22;39093;52.788;6.940;2022-09-16T05:23:42;11.20;99.90
53208;DHT22;39093;52.788;6.940;2022-09-16T05:26:21;11.00;99.90
53208;DHT22;39093;52.788;6.940;2022-09-16T05:28:49;11.10;99.90
53208;DHT22;39093;52.788;6.940;2022-09-16T05:31:20;11.10;99.90
53208;DHT22;39093;52.788;6.940;2022-09-16T05:33:56;11.10;99.90
53208;DHT22;39093;52.788;6.940;2022-09-16T05:36:24;11.10;99.90
53208;DHT22;39093;52.788;6.940;2022-09-16T05:38:52;11.10;99.90
53208;DHT22;39093;52.788;6.940;2022-09-16T05:41:39;11.10;99.90
53208;DHT22;39093;52.788;6.940;2022-09-16T05:44:06;11.20;99.90
53208;DHT22;39093;52.788;6.940;2022-09-16T05:46:33;11.20;99.90
53208;DHT22;39093;52.788;6.940;2022-09-16T05:49:01;11.20;99.90
53208;DHT22;39093;52.788;6.940;2022-09-16T05:51:28;11.20;99.90
53208;DHT22;39093;52.788;6.940;2022-09-16T05:53:55;11.20;99.90
53208;DHT22;39093;52.788;6.940;2022-09-16T05:56:24;11.10;99.90
53208;DHT22;39093;52.788;6.940;2022-09-16T05:58:53;11.20;99.90
53208;DHT22;39093;52.788;6.940;2022-09-16T06:01:24;11.20;99.90
53208;DHT22;39093;52.788;6.940;2022-09-16T06:03:53;11.10;99.90
53208;DHT22;39093;52.788;6.940;2022-09-16T06:09:00;11.10;99.90
53208;DHT22;39093;52.788;6.940;2022-09-16T06:11:30;11.20;99.90
53208;DHT22;39093;52.788;6.940;2022-09-16T06:13:58;11.20;99.90
53208;DHT22;39093;52.788;6.940;2022-09-16T06:16:29;11.20;99.90
53208;DHT22;39093;52.788;6.940;2022-09-16T06:19:00;11.20;99.90
53208;DHT22;39093;52.788;6.940;2022-09-16T06:21:27;11.20;99.90
53208;DHT22;39093;52.788;6.940;2022-09-16T06:23:55;11.30;99.90
53208;DHT22;39093;52.788;6.940;2022-09-16T06:26:24;11.30;99.90
53208;DHT22;39093;52.788;6.940;2022-09-16T06:28:52;11.40;99.90
53208;DHT22;39093;52.788;6.940;2022-09-16T06:31:22;11.50;99.90
53208;DHT22;39093;52.788;6.940;2022-09-16T06:33:49;11.60;99.90
53208;DHT22;39093;52.788;6.940;2022-09-16T06:36:21;11.60;99.90
53208;DHT22;39093;52.788;6.940;2022-09-16T06:38:49;11.60;99.90
53208;DHT22;39093;52.788;6.940;2022-09-16T06:41:18;11.60;99.90
53208;DHT22;39093;52.788;6.940;2022-09-16T06:43:47;11.70;99.90
53208;DHT22;39093;52.788;6.940;2022-09-16T06:46:24;11.70;99.90
53208;DHT22;39093;52.788;6.940;2022-09-16T06:48:54;11.70;99.90
53208;DHT22;39093;52.788;6.940;2022-09-16T06:51:28;11.70;99.90
53208;DHT22;39093;52.788;6.940;2022-09-16T06:54:00;11.60;99.90
53208;DHT22;39093;52.788;6.940;2022-09-16T06:56:28;11.70;99.90
53208;DHT22;39093;52.788;6.940;2022-09-16T06:58:55;11.90;99.90
53208;DHT22;39093;52.788;6.940;2022-09-16T07:01:25;11.70;99.90
53208;DHT22;39093;52.788;6.940;2022-09-16T07:03:54;11.70;99.90
53208;DHT22;39093;52.788;6.940;2022-09-16T07:06:24;11.70;99.90
53208;DHT22;39093;52.788;6.940;2022-09-16T07:09:11;11.80;99.90
53208;DHT22;39093;52.788;6.940;2022-09-16T07:11:37;11.70;99.90
53208;DHT22;39093;52.788;6.940;2022-09-16T07:14:07;11.80;99.90
53208;DHT22;39093;52.788;6.940;2022-09-16T07:16:34;11.80;99.90
53208;DHT22;39093;52.788;6.940;2022-09-16T07:19:01;11.90;99.90
53208;DHT22;39093;52.788;6.940;2022-09-16T07:21:28;11.80;99.90
53208;DHT22;39093;52.788;6.940;2022-09-16T07:26:51;11.90;99.90
53208;DHT22;39093;52.788;6.940;2022-09-16T07:29:21;11.90;99.90
53208;DHT22;39093;52.788;6.940;2022-09-16T07:31:50;12.00;99.90
53208;DHT22;39093;52.788;6.940;2022-09-16T07:34:20;12.00;99.90
53208;DHT22;39093;52.788;6.940;2022-09-16T07:36:50;12.10;99.90
53208;DHT22;39093;52.788;6.940;2022-09-16T07:39:18;12.10;99.90
53208;DHT22;39093;52.788;6.940;2022-09-16T07:41:46;12.10;99.90
53208;DHT22;39093;52.788;6.940;2022-09-16T07:44:16;12.20;99.90
53208;DHT22;39093;52.788;6.940;2022-09-16T07:46:43;12.30;99.90
53208;DHT22;39093;52.788;6.940;2022-09-16T07:49:13;12.50;99.90
53208;DHT22;39093;52.788;6.940;2022-09-16T07:51:40;12.50;99.90
53208;DHT22;39093;52.788;6.940;2022-09-16T07:54:10;12.60;99.90
53208;DHT22;39093;52.788;6.940;2022-09-16T07:56:39;12.60;99.90
53208;DHT22;39093;52.788;6.940;2022-09-16T07:59:09;12.60;99.90
53208;DHT22;39093;52.788;6.940;2022-09-16T08:01:43;12.60;99.90
53208;DHT22;39093;52.788;6.940;2022-09-16T08:04:10;12.60;99.90
53208;DHT22;39093;52.788;6.940;2022-09-16T08:06:38;12.70;99.90
53208;DHT22;39093;52.788;6.940;2022-09-16T08:09:05;12.70;99.90
53208;DHT22;39093;52.788;6.940;2022-09-16T08:11:52;12.70;99.90
53208;DHT22;39093;52.788;6.940;2022-09-16T08:14:19;12.70;99.90
53208;DHT22;39093;52.788;6.940;2022-09-16T08:16:46;12.70;99.90
53208;DHT22;39093;52.788;6.940;2022-09-16T08:21:54;12.80;99.90
53208;DHT22;39093;52.788;6.940;2022-09-16T08:24:21;12.90;99.90
53208;DHT22;39093;52.788;6.940;2022-09-16T08:26:48;12.90;99.90
53208;DHT22;39093;52.788;6.940;2022-09-16T08:29:15;13.00;99.90
53208;DHT22;39093;52.788;6.940;2022-09-16T08:31:43;13.10;99.90
53208;DHT22;39093;52.788;6.940;2022-09-16T08:34:10;13.10;99.90
53208;DHT22;39093;52.788;6.940;2022-09-16T08:36:44;13.20;99.90
53208;DHT22;39093;52.788;6.940;2022-09-16T08:45:36;13.50;99.90
53208;DHT22;39093;52.788;6.940;2022-09-16T08:51:04;13.70;99.90
53208;DHT22;39093;52.788;6.940;2022-09-16T08:53:54;13.70;99.90
53208;DHT22;39093;52.788;6.940;2022-09-16T09:08:48;14.10;99.90
53208;DHT22;39093;52.788;6.940;2022-09-16T09:11:46;14.30;99.90
53208;DHT22;39093;52.788;6.940;2022-09-16T09:14:41;14.30;99.90
53208;DHT22;39093;52.788;6.940;2022-09-16T09:17:41;14.30;99.90
53208;DHT22;39093;52.788;6.940;2022-09-16T09:26:24;14.20;99.90
53208;DHT22;39093;52.788;6.940;2022-09-16T09:40:15;14.70;99.90
53208;DHT22;39093;52.788;6.940;2022-09-16T09:42:52;14.80;99.90
53208;DHT22;39093;52.788;6.940;2022-09-16T09:45:32;14.90;99.90
53208;DHT22;39093;52.788;6.940;2022-09-16T09:48:19;14.90;99.90
53208;DHT22;39093;52.788;6.940;2022-09-16T09:50:48;15.00;99.90
53208;DHT22;39093;52.788;6.940;2022-09-16T09:53:35;15.00;99.90
53208;DHT22;39093;52.788;6.940;2022-09-16T09:58:47;15.30;99.90
53208;DHT22;39093;52.788;6.940;2022-09-16T10:01:14;15.40;99.90
53208;DHT22;39093;52.788;6.940;2022-09-16T10:03:41;15.50;99.90
53208;DHT22;39093;52.788;6.940;2022-09-16T10:06:11;15.50;99.90
53208;DHT22;39093;52.788;6.940;2022-09-16T10:08:48;15.50;99.90
53208;DHT22;39093;52.788;6.940;2022-09-16T10:11:27;15.50;99.90
53208;DHT22;39093;52.788;6.940;2022-09-16T10:13:56;15.60;99.90
53208;DHT22;39093;52.788;6.940;2022-09-16T10:16:35;15.70;99.90
53208;DHT22;39093;52.788;6.940;2022-09-16T10:21:47;15.90;99.90
53208;DHT22;39093;52.788;6.940;2022-09-16T10:24:30;15.90;99.90
53208;DHT22;39093;52.788;6.940;2022-09-16T10:26:58;16.00;99.90
53208;DHT22;39093;52.788;6.940;2022-09-16T10:29:26;16.10;99.90
53208;DHT22;39093;52.788;6.940;2022-09-16T10:31:53;16.10;99.90
53208;DHT22;39093;52.788;6.940;2022-09-16T10:34:33;16.30;99.90
53208;DHT22;39093;52.788;6.940;2022-09-16T10:39:41;16.40;99.30
53208;DHT22;39093;52.788;6.940;2022-09-16T10:42:26;16.40;98.20
53208;DHT22;39093;52.788;6.940;2022-09-16T10:45:14;16.30;98.30
53208;DHT22;39093;52.788;6.940;2022-09-16T10:47:48;16.30;96.50
53208;DHT22;39093;52.788;6.940;2022-09-16T10:50:18;16.40;97.10
53208;DHT22;39093;52.788;6.940;2022-09-16T10:52:46;16.40;97.10
53208;DHT22;39093;52.788;6.940;2022-09-16T10:55:29;16.40;97.30
53208;DHT22;39093;52.788;6.940;2022-09-16T10:58:16;16.30;96.50
53208;DHT22;39093;52.788;6.940;2022-09-16T11:06:27;16.10;98.30
53208;DHT22;39093;52.788;6.940;2022-09-16T11:09:05;16.10;99.00
53208;DHT22;39093;52.788;6.940;2022-09-16T11:11:47;16.20;99.20
53208;DHT22;39093;52.788;6.940;2022-09-16T11:14:35;16.40;98.20
53208;DHT22;39093;52.788;6.940;2022-09-16T11:20:14;16.60;97.60
53208;DHT22;39093;52.788;6.940;2022-09-16T11:23:00;16.70;97.30
53208;DHT22;39093;52.788;6.940;2022-09-16T11:36:33;17.40;95.70
53208;DHT22;39093;52.788;6.940;2022-09-16T11:41:41;17.50;95.00
53208;DHT22;39093;52.788;6.940;2022-09-16T11:49:55;17.70;94.50
53208;DHT22;39093;52.788;6.940;2022-09-16T11:57:55;17.80;94.10
53208;DHT22;39093;52.788;6.940;2022-09-16T12:00:22;17.80;93.70
53208;DHT22;39093;52.788;6.940;2022-09-16T12:03:14;17.90;93.10
53208;DHT22;39093;52.788;6.940;2022-09-16T12:05:55;18.10;92.60
53208;DHT22;39093;52.788;6.940;2022-09-16T12:11:17;18.40;92.40
53208;DHT22;39093;52.788;6.940;2022-09-16T12:13:51;18.50;92.30
53208;DHT22;39093;52.788;6.940;2022-09-16T12:16:46;18.20;91.50
53208;DHT22;39093;52.788;6.940;2022-09-16T12:19:28;17.70;91.80
53208;DHT22;39093;52.788;6.940;2022-09-16T12:22:05;17.30;92.80
53208;DHT22;39093;52.788;6.940;2022-09-16T12:27:39;16.90;94.50
53208;DHT22;39093;52.788;6.940;2022-09-16T12:30:20;17.60;95.30
53208;DHT22;39093;52.788;6.940;2022-09-16T12:35:23;19.40;93.90
53208;DHT22;39093;52.788;6.940;2022-09-16T12:37:53;20.20;92.30
53208;DHT22;39093;52.788;6.940;2022-09-16T12:40:24;20.80;92.20
53208;DHT22;39093;52.788;6.940;2022-09-16T12:43:46;20.90;91.10
53208;DHT22;39093;52.788;6.940;2022-09-16T12:51:54;18.90;90.30
53208;DHT22;39093;52.788;6.940;2022-09-16T12:58:15;18.30;93.00
53208;DHT22;39093;52.788;6.940;2022-09-16T13:03:37;19.90;93.10
53208;DHT22;39093;52.788;6.940;2022-09-16T13:06:33;20.90;91.60
53208;DHT22;39093;52.788;6.940;2022-09-16T13:09:21;21.60;90.30
53208;DHT22;39093;52.788;6.940;2022-09-16T13:11:57;22.10;90.60
53208;DHT22;39093;52.788;6.940;2022-09-16T13:14:54;22.70;88.20
53208;DHT22;39093;52.788;6.940;2022-09-16T13:20:11;22.40;87.10
53208;DHT22;39093;52.788;6.940;2022-09-16T13:22:43;21.40;86.90
53208;DHT22;39093;52.788;6.940;2022-09-16T13:30:35;19.10;91.70
53208;DHT22;39093;52.788;6.940;2022-09-16T13:33:22;18.90;92.80
53208;DHT22;39093;52.788;6.940;2022-09-16T13:38:46;19.50;94.30
53208;DHT22;39093;52.788;6.940;2022-09-16T13:43:55;19.90;91.40
53208;DHT22;39093;52.788;6.940;2022-09-16T13:46:40;20.00;91.80
53208;DHT22;39093;52.788;6.940;2022-09-16T13:49:21;20.00;91.20
53208;DHT22;39093;52.788;6.940;2022-09-16T13:51:50;20.20;91.10
53208;DHT22;39093;52.788;6.940;2022-09-16T13:54:30;20.40;90.80
53208;DHT22;39093;52.788;6.940;2022-09-16T14:00:20;19.40;91.00
53208;DHT22;39093;52.788;6.940;2022-09-16T14:11:14;18.70;93.20
53208;DHT22;39093;52.788;6.940;2022-09-16T14:13:47;19.30;93.10
53208;DHT22;39093;52.788;6.940;2022-09-16T14:16:21;20.00;92.00
53208;DHT22;39093;52.788;6.940;2022-09-16T14:19:06;20.50;91.90
53208;DHT22;39093;52.788;6.940;2022-09-16T14:21:34;20.90;91.70
53208;DHT22;39093;52.788;6.940;2022-09-16T14:24:18;20.70;90.50
53208;DHT22;39093;52.788;6.940;2022-09-16T14:26:56;19.80;90.60
53208;DHT22;39093;52.788;6.940;2022-09-16T14:29:24;19.30;90.90
53208;DHT22;39093;52.788;6.940;2022-09-16T14:31:54;18.60;91.30
53208;DHT22;39093;52.788;6.940;2022-09-16T14:34:32;18.10;91.40
53208;DHT22;39093;52.788;6.940;2022-09-16T14:37:00;17.70;91.30
53208;DHT22;39093;52.788;6.940;2022-09-16T14:39:28;17.20;92.50
53208;DHT22;39093;52.788;6.940;2022-09-16T14:42:01;17.00;93.10
53208;DHT22;39093;52.788;6.940;2022-09-16T14:44:44;16.80;93.30
53208;DHT22;39093;52.788;6.940;2022-09-16T14:47:34;16.70;93.20
53208;DHT22;39093;52.788;6.940;2022-09-16T14:50:35;16.70;93.70
53208;DHT22;39093;52.788;6.940;2022-09-16T14:53:05;16.60;93.90
53208;DHT22;39093;52.788;6.940;2022-09-16T14:55:35;16.40;94.20
53208;DHT22;39093;52.788;6.940;2022-09-16T14:58:08;16.30;94.60
53208;DHT22;39093;52.788;6.940;2022-09-16T15:00:42;16.10;95.20
53208;DHT22;39093;52.788;6.940;2022-09-16T15:03:34;16.00;95.90
53208;DHT22;39093;52.788;6.940;2022-09-16T15:06:03;15.90;95.80
53208;DHT22;39093;52.788;6.940;2022-09-16T15:08:45;15.90;95.90
53208;DHT22;39093;52.788;6.940;2022-09-16T15:11:18;15.90;96.20
53208;DHT22;39093;52.788;6.940;2022-09-16T15:14:06;15.90;96.50
53208;DHT22;39093;52.788;6.940;2022-09-16T15:16:49;15.80;96.90
53208;DHT22;39093;52.788;6.940;2022-09-16T15:22:13;15.80;97.90
53208;DHT22;39093;52.788;6.940;2022-09-16T15:24:41;15.80;97.40
53208;DHT22;39093;52.788;6.940;2022-09-16T15:27:09;15.80;97.60
53208;DHT22;39093;52.788;6.940;2022-09-16T15:29:46;15.90;97.70
53208;DHT22;39093;52.788;6.940;2022-09-16T15:32:17;15.90;97.70
53208;DHT22;39093;52.788;6.940;2022-09-16T15:34:45;15.90;97.70
53208;DHT22;39093;52.788;6.940;2022-09-16T15:37:31;15.90;98.00
53208;DHT22;39093;52.788;6.940;2022-09-16T15:40:27;15.90;98.40
53208;DHT22;39093;52.788;6.940;2022-09-16T15:43:12;15.90;97.80
53208;DHT22;39093;52.788;6.940;2022-09-16T15:45:41;15.90;98.70
53208;DHT22;39093;52.788;6.940;2022-09-16T15:48:15;15.80;98.50
53208;DHT22;39093;52.788;6.940;2022-09-16T15:50:55;15.80;98.40
53208;DHT22;39093;52.788;6.940;2022-09-16T15:56:05;15.70;98.70
53208;DHT22;39093;52.788;6.940;2022-09-16T15:58:40;15.60;98.60
53208;DHT22;39093;52.788;6.940;2022-09-16T16:01:12;15.50;98.80
53208;DHT22;39093;52.788;6.940;2022-09-16T16:06:11;15.50;99.00
53208;DHT22;39093;52.788;6.940;2022-09-16T16:08:49;15.40;98.90
53208;DHT22;39093;52.788;6.940;2022-09-16T16:11:19;15.40;99.00
53208;DHT22;39093;52.788;6.940;2022-09-16T16:13:46;15.30;99.10
53208;DHT22;39093;52.788;6.940;2022-09-16T16:16:17;15.30;99.40
53208;DHT22;39093;52.788;6.940;2022-09-16T16:18:45;15.30;99.30
53208;DHT22;39093;52.788;6.940;2022-09-16T16:21:15;15.20;99.40
53208;DHT22;39093;52.788;6.940;2022-09-16T16:23:43;15.20;99.50
53208;DHT22;39093;52.788;6.940;2022-09-16T16:26:10;15.20;99.90
53208;DHT22;39093;52.788;6.940;2022-09-16T16:28:37;15.20;99.90
53208;DHT22;39093;52.788;6.940;2022-09-16T16:31:15;15.20;99.90
53208;DHT22;39093;52.788;6.940;2022-09-16T16:33:43;15.20;99.90
53208;DHT22;39093;52.788;6.940;2022-09-16T16:36:16;15.10;99.90
53208;DHT22;39093;52.788;6.940;2022-09-16T16:38:43;15.10;99.90
53208;DHT22;39093;52.788;6.940;2022-09-16T16:41:12;14.90;99.90
53208;DHT22;39093;52.788;6.940;2022-09-16T16:43:44;14.80;99.90
53208;DHT22;39093;52.788;6.940;2022-09-16T16:46:11;14.70;99.90
53208;DHT22;39093;52.788;6.940;2022-09-16T16:48:38;14.60;99.90
53208;DHT22;39093;52.788;6.940;2022-09-16T16:51:07;14.40;99.90
53208;DHT22;39093;52.788;6.940;2022-09-16T16:53:34;14.20;99.90
53208;DHT22;39093;52.788;6.940;2022-09-16T16:56:09;14.10;99.90
53208;DHT22;39093;52.788;6.940;2022-09-16T16:58:41;14.00;99.90
53208;DHT22;39093;52.788;6.940;2022-09-16T17:01:13;13.80;99.90
53208;DHT22;39093;52.788;6.940;2022-09-16T17:03:43;13.70;99.90
53208;DHT22;39093;52.788;6.940;2022-09-16T17:06:12;13.70;99.90
53208;DHT22;39093;52.788;6.940;2022-09-16T17:08:39;13.60;99.90
53208;DHT22;39093;52.788;6.940;2022-09-16T17:13:33;13.50;99.90
53208;DHT22;39093;52.788;6.940;2022-09-16T17:16:00;13.50;99.90
53208;DHT22;39093;52.788;6.940;2022-09-16T17:18:27;13.50;99.90
53208;DHT22;39093;52.788;6.940;2022-09-16T17:21:00;13.30;99.90
53208;DHT22;39093;52.788;6.940;2022-09-16T17:23:27;13.30;99.90
53208;DHT22;39093;52.788;6.940;2022-09-16T17:25:54;13.30;99.90
53208;DHT22;39093;52.788;6.940;2022-09-16T17:28:21;13.30;99.90
53208;DHT22;39093;52.788;6.940;2022-09-16T17:30:48;13.20;99.90
53208;DHT22;39093;52.788;6.940;2022-09-16T17:33:15;13.20;99.90
53208;DHT22;39093;52.788;6.940;2022-09-16T17:35:42;13.20;99.90
53208;DHT22;39093;52.788;6.940;2022-09-16T17:38:09;13.10;99.90
53208;DHT22;39093;52.788;6.940;2022-09-16T17:40:36;13.10;99.90
53208;DHT22;39093;52.788;6.940;2022-09-16T17:43:06;13.00;99.90
53208;DHT22;39093;52.788;6.940;2022-09-16T17:45:33;13.00;99.90
53208;DHT22;39093;52.788;6.940;2022-09-16T17:48:00;13.00;99.90
53208;DHT22;39093;52.788;6.940;2022-09-16T17:50:27;13.00;99.90
53208;DHT22;39093;52.788;6.940;2022-09-16T17:52:54;12.90;99.90
53208;DHT22;39093;52.788;6.940;2022-09-16T17:55:21;12.90;99.90
53208;DHT22;39093;52.788;6.940;2022-09-16T17:57:48;13.00;99.90
53208;DHT22;39093;52.788;6.940;2022-09-16T18:00:15;12.90;99.90
53208;DHT22;39093;52.788;6.940;2022-09-16T18:02:42;12.90;99.90
53208;DHT22;39093;52.788;6.940;2022-09-16T18:05:08;12.90;99.90
53208;DHT22;39093;52.788;6.940;2022-09-16T18:07:36;12.90;99.90
53208;DHT22;39093;52.788;6.940;2022-09-16T18:10:03;12.80;99.90
53208;DHT22;39093;52.788;6.940;2022-09-16T18:12:30;12.80;99.90
53208;DHT22;39093;52.788;6.940;2022-09-16T18:14:57;12.80;99.90
53208;DHT22;39093;52.788;6.940;2022-09-16T18:17:23;12.80;99.90
53208;DHT22;39093;52.788;6.940;2022-09-16T18:19:50;12.80;99.90
53208;DHT22;39093;52.788;6.940;2022-09-16T18:22:17;12.80;99.90
53208;DHT22;39093;52.788;6.940;2022-09-16T18:24:44;12.80;99.90
53208;DHT22;39093;52.788;6.940;2022-09-16T18:27:12;12.90;99.90
53208;DHT22;39093;52.788;6.940;2022-09-16T18:29:39;12.90;99.90
53208;DHT22;39093;52.788;6.940;2022-09-16T18:32:06;12.90;99.90
53208;DHT22;39093;52.788;6.940;2022-09-16T18:34:33;12.90;99.90
53208;DHT22;39093;52.788;6.940;2022-09-16T18:37:00;12.90;99.90
53208;DHT22;39093;52.788;6.940;2022-09-16T18:39:27;12.90;99.90
53208;DHT22;39093;52.788;6.940;2022-09-16T18:41:54;12.80;99.90
53208;DHT22;39093;52.788;6.940;2022-09-16T18:44:22;12.70;99.90
53208;DHT22;39093;52.788;6.940;2022-09-16T18:46:52;12.70;99.90
53208;DHT22;39093;52.788;6.940;2022-09-16T18:49:19;12.60;99.90
53208;DHT22;39093;52.788;6.940;2022-09-16T18:51:49;12.60;99.90
53208;DHT22;39093;52.788;6.940;2022-09-16T18:54:23;12.50;99.90
53208;DHT22;39093;52.788;6.940;2022-09-16T18:56:55;12.50;99.90
53208;DHT22;39093;52.788;6.940;2022-09-16T18:59:23;12.50;99.90
53208;DHT22;39093;52.788;6.940;2022-09-16T19:01:57;12.50;99.90
53208;DHT22;39093;52.788;6.940;2022-09-16T19:04:27;12.40;99.90